Time,TemperatureF,DewpointF,PressureIn,WindDirection,WindDirectionDegrees,WindSpeedMPH,WindSpeedGustMPH,Humidity,HourlyPrecipIn,Conditions,Clouds,dailyrainin,SoftwareType,DateUTC
2013-06-24 00:11:00,86.2,61.0,29.85,South,180,10.3,-999.0,43,-99.99,,,0.00,Acu-Link.com,2013-06-24 05:11:00,
2013-06-24 00:26:00,85.6,61.2,29.85,South,180,15.4,-999.0,44,-99.99,,,0.00,Acu-Link.com,2013-06-24 05:26:00,
2013-06-24 00:41:00,84.9,61.2,29.85,SSE,157,7.8,-999.0,45,-99.99,,,0.00,Acu-Link.com,2013-06-24 05:41:00,
2013-06-24 00:56:00,84.7,61.6,29.85,South,180,11.9,-999.0,46,-99.99,,,0.00,Acu-Link.com,2013-06-24 05:56:00,
2013-06-24 01:12:00,84.0,62.2,29.85,SSE,157,13.0,-999.0,48,-99.99,,,0.00,Acu-Link.com,2013-06-24 06:12:00,
2013-06-24 01:27:00,83.5,62.3,29.84,ESE,112,7.8,-999.0,49,-99.99,,,0.00,Acu-Link.com,2013-06-24 06:27:00,
2013-06-24 01:42:00,82.9,62.4,29.85,SSE,157,11.4,-999.0,50,-99.99,,,0.00,Acu-Link.com,2013-06-24 06:42:00,
2013-06-24 01:57:00,82.4,62.4,29.85,ESE,112,9.8,-999.0,51,-99.99,,,0.00,Acu-Link.com,2013-06-24 06:57:00,
2013-06-24 02:12:00,82.6,63.7,29.85,SSE,157,14.1,-999.0,53,-99.99,,,0.00,Acu-Link.com,2013-06-24 07:12:00,
2013-06-24 02:28:00,82.0,63.7,29.85,SE,135,11.4,-999.0,54,-99.99,,,0.00,Acu-Link.com,2013-06-24 07:28:00,
2013-06-24 02:43:00,82.2,63.9,29.85,South,180,7.8,-999.0,54,-99.99,,,0.00,Acu-Link.com,2013-06-24 07:43:00,
2013-06-24 02:58:00,81.9,64.1,29.86,South,180,11.0,-999.0,55,-99.99,,,0.00,Acu-Link.com,2013-06-24 07:58:00,
2013-06-24 03:15:00,81.9,64.1,29.86,SSE,157,11.0,-999.0,55,-99.99,,,0.00,Acu-Link.com,2013-06-24 08:15:00,
2013-06-24 03:30:00,81.5,64.3,29.86,SSE,157,11.9,-999.0,56,-99.99,,,0.00,Acu-Link.com,2013-06-24 08:30:00,
2013-06-24 03:46:00,81.1,64.4,29.85,South,180,11.0,-999.0,57,-99.99,,,0.00,Acu-Link.com,2013-06-24 08:46:00,
2013-06-24 04:01:00,80.8,64.6,29.86,SE,135,6.7,-999.0,58,-99.99,,,0.00,Acu-Link.com,2013-06-24 09:01:00,
2013-06-24 04:16:00,79.9,64.3,29.86,SSE,157,8.3,-999.0,59,-99.99,,,0.00,Acu-Link.com,2013-06-24 09:16:00,
2013-06-24 04:31:00,79.5,64.4,29.87,ESE,112,8.3,-999.0,60,-99.99,,,0.00,Acu-Link.com,2013-06-24 09:31:00,
2013-06-24 04:47:00,78.8,64.7,29.87,SSE,157,7.8,-999.0,62,-99.99,,,0.00,Acu-Link.com,2013-06-24 09:47:00,
2013-06-24 05:02:00,78.4,64.8,29.87,South,180,6.7,-999.0,63,-99.99,,,0.00,Acu-Link.com,2013-06-24 10:02:00,
2013-06-24 05:17:00,77.7,64.6,29.87,SSE,157,9.4,-999.0,64,-99.99,,,0.00,Acu-Link.com,2013-06-24 10:17:00,
2013-06-24 05:32:00,77.2,64.5,29.87,South,180,6.3,-999.0,65,-99.99,,,0.00,Acu-Link.com,2013-06-24 10:32:00,
2013-06-24 05:48:00,76.8,64.6,29.88,SSE,157,7.4,-999.0,66,-99.99,,,0.00,Acu-Link.com,2013-06-24 10:48:00,
2013-06-24 06:03:00,76.5,64.7,29.89,SE,135,5.1,-999.0,67,-99.99,,,0.00,Acu-Link.com,2013-06-24 11:03:00,
2013-06-24 06:18:00,76.1,64.8,29.89,SSE,157,9.4,-999.0,68,-99.99,,,0.00,Acu-Link.com,2013-06-24 11:18:00,
2013-06-24 06:33:00,75.9,64.6,29.89,ESE,112,6.7,-999.0,68,-99.99,,,0.00,Acu-Link.com,2013-06-24 11:33:00,
2013-06-24 06:48:00,75.9,64.6,29.90,South,180,6.7,-999.0,68,-99.99,,,0.00,Acu-Link.com,2013-06-24 11:48:00,
2013-06-24 07:04:00,76.1,64.8,29.90,SW,225,7.8,-999.0,68,-99.99,,,0.00,Acu-Link.com,2013-06-24 12:04:00,
2013-06-24 07:19:00,76.1,64.8,29.90,South,180,6.3,-999.0,68,-99.99,,,0.00,Acu-Link.com,2013-06-24 12:19:00,
2013-06-24 07:34:00,77.5,65.3,29.90,SE,135,7.4,-999.0,66,-99.99,,,0.00,Acu-Link.com,2013-06-24 12:34:00,
2013-06-24 07:49:00,78.4,65.2,29.90,SSW,202,9.4,-999.0,64,-99.99,,,0.00,Acu-Link.com,2013-06-24 12:49:00,
2013-06-24 08:04:00,79.3,66.1,29.91,South,180,10.3,-999.0,64,-99.99,,,0.00,Acu-Link.com,2013-06-24 13:04:00,
2013-06-24 08:20:00,80.1,66.8,29.92,South,180,9.4,-999.0,64,-99.99,,,0.00,Acu-Link.com,2013-06-24 13:20:00,
2013-06-24 08:35:00,81.0,67.6,29.92,SSW,202,8.9,-999.0,64,-99.99,,,0.00,Acu-Link.com,2013-06-24 13:35:00,
2013-06-24 08:50:00,81.7,68.3,29.92,SSW,202,13.0,-999.0,64,-99.99,,,0.00,Acu-Link.com,2013-06-24 13:50:00,
2013-06-24 09:05:00,82.0,68.6,29.92,SSW,202,18.1,-999.0,64,-99.99,,,0.00,Acu-Link.com,2013-06-24 14:05:00,
2013-06-24 09:20:00,81.7,68.3,29.91,SW,225,13.0,-999.0,64,-99.99,,,0.00,Acu-Link.com,2013-06-24 14:20:00,
2013-06-24 09:36:00,82.9,68.6,29.91,South,180,11.4,-999.0,62,-99.99,,,0.00,Acu-Link.com,2013-06-24 14:36:00,
2013-06-24 09:51:00,83.5,68.6,29.92,SSW,202,19.0,-999.0,61,-99.99,,,0.00,Acu-Link.com,2013-06-24 14:51:00,
2013-06-24 10:06:00,85.6,69.1,29.91,South,180,18.6,-999.0,58,-99.99,,,0.00,Acu-Link.com,2013-06-24 15:06:00,
2013-06-24 10:21:00,85.3,68.8,29.91,SSW,202,15.0,-999.0,58,-99.99,,,0.00,Acu-Link.com,2013-06-24 15:21:00,
2013-06-24 10:37:00,86.5,68.9,29.92,South,180,14.1,-999.0,56,-99.99,,,0.00,Acu-Link.com,2013-06-24 15:37:00,
2013-06-24 10:52:00,87.4,68.7,29.91,SSW,202,15.4,-999.0,54,-99.99,,,0.00,Acu-Link.com,2013-06-24 15:52:00,
2013-06-24 11:07:00,88.7,68.8,29.91,SW,225,17.7,-999.0,52,-99.99,,,0.00,Acu-Link.com,2013-06-24 16:07:00,
2013-06-24 11:22:00,88.5,67.5,29.91,SSW,202,17.7,-999.0,50,-99.99,,,0.00,Acu-Link.com,2013-06-24 16:22:00,
2013-06-24 11:37:00,89.2,67.5,29.91,SSW,202,18.1,-999.0,49,-99.99,,,0.01,Acu-Link.com,2013-06-24 16:37:00,
2013-06-24 11:53:00,91.2,67.5,29.91,SE,135,19.7,-999.0,46,-99.99,,,0.18,Acu-Link.com,2013-06-24 16:53:00,
2013-06-24 12:08:00,90.0,67.0,29.91,SW,225,9.4,-999.0,47,-99.99,,,0.18,Acu-Link.com,2013-06-24 17:08:00,
2013-06-24 12:23:00,89.8,66.8,29.91,South,180,18.1,-999.0,47,-99.99,,,0.18,Acu-Link.com,2013-06-24 17:23:00,
2013-06-24 12:38:00,91.0,66.7,29.90,South,180,13.0,-999.0,45,-99.99,,,0.18,Acu-Link.com,2013-06-24 17:38:00,
2013-06-24 12:53:00,91.8,67.4,29.90,South,180,7.8,-999.0,45,-99.99,,,0.18,Acu-Link.com,2013-06-24 17:53:00,
2013-06-24 13:09:00,92.3,66.5,29.89,SSE,157,14.5,-999.0,43,-99.99,,,0.18,Acu-Link.com,2013-06-24 18:09:00,
2013-06-24 13:24:00,91.9,66.2,29.88,SSW,202,16.6,-999.0,43,-99.99,,,0.18,Acu-Link.com,2013-06-24 18:24:00,
2013-06-24 13:39:00,92.5,66.7,29.87,SSW,202,14.1,-999.0,43,-99.99,,,0.22,Acu-Link.com,2013-06-24 18:39:00,
2013-06-24 13:54:00,92.3,67.2,29.87,South,180,7.8,-999.0,44,-99.99,,,0.37,Acu-Link.com,2013-06-24 18:54:00,
2013-06-24 14:09:00,93.6,67.0,29.86,SSW,202,10.3,-999.0,42,-99.99,,,0.37,Acu-Link.com,2013-06-24 19:09:00,
2013-06-24 14:25:00,95.0,65.4,29.85,SSW,202,16.6,-999.0,38,-99.99,,,0.37,Acu-Link.com,2013-06-24 19:25:00,
2013-06-24 14:40:00,94.5,65.6,29.84,South,180,8.3,-999.0,39,-99.99,,,0.37,Acu-Link.com,2013-06-24 19:40:00,
2013-06-24 14:55:00,95.0,66.1,29.84,SSW,202,11.9,-999.0,39,-99.99,,,0.37,Acu-Link.com,2013-06-24 19:55:00,
2013-06-24 15:10:00,96.1,64.8,29.83,SSW,202,10.3,-999.0,36,-99.99,,,0.43,Acu-Link.com,2013-06-24 20:10:00,
2013-06-24 15:26:00,96.6,61.9,29.83,South,180,19.0,-999.0,32,-99.99,,,0.43,Acu-Link.com,2013-06-24 20:26:00,
2013-06-24 15:41:00,98.1,64.8,29.82,SSW,202,11.4,-999.0,34,-99.99,,,0.43,Acu-Link.com,2013-06-24 20:41:00,
2013-06-24 15:56:00,97.0,63.9,29.81,South,180,17.7,-999.0,34,-99.99,,,0.43,Acu-Link.com,2013-06-24 20:56:00,
2013-06-24 16:11:00,96.3,64.1,29.81,South,180,18.1,-999.0,35,-99.99,,,0.43,Acu-Link.com,2013-06-24 21:11:00,
2013-06-24 16:26:00,98.2,66.6,29.80,SSE,157,14.1,-999.0,36,-99.99,,,0.43,Acu-Link.com,2013-06-24 21:26:00,
2013-06-24 16:42:00,97.2,64.9,29.80,South,180,17.7,-999.0,35,-99.99,,,0.43,Acu-Link.com,2013-06-24 21:42:00,
2013-06-24 16:57:00,96.6,63.6,29.80,South,180,10.3,-999.0,34,-99.99,,,0.48,Acu-Link.com,2013-06-24 21:57:00,
2013-06-24 17:12:00,95.9,66.9,29.79,South,180,17.7,-999.0,39,-99.99,,,0.48,Acu-Link.com,2013-06-24 22:12:00,
2013-06-24 17:27:00,95.4,66.4,29.79,SSE,157,11.9,-999.0,39,-99.99,,,0.48,Acu-Link.com,2013-06-24 22:27:00,
2013-06-24 17:42:00,95.0,66.8,29.78,South,180,16.1,-999.0,40,-99.99,,,0.48,Acu-Link.com,2013-06-24 22:42:00,
2013-06-24 17:58:00,95.0,67.6,29.78,ESE,112,16.1,-999.0,41,-99.99,,,0.48,Acu-Link.com,2013-06-24 22:58:00,
2013-06-24 18:13:00,95.9,66.2,29.77,SSE,157,18.1,-999.0,38,-99.99,,,0.48,Acu-Link.com,2013-06-24 23:13:00,
2013-06-24 18:28:00,97.0,65.5,29.77,South,180,8.9,-999.0,36,-99.99,,,0.48,Acu-Link.com,2013-06-24 23:28:00,
2013-06-24 18:43:00,95.0,66.8,29.77,SW,225,19.0,-999.0,40,-99.99,,,0.48,Acu-Link.com,2013-06-24 23:43:00,
2013-06-24 18:58:00,94.8,66.7,29.77,SSW,202,19.7,-999.0,40,-99.99,,,0.54,Acu-Link.com,2013-06-24 23:58:00,
2013-06-24 19:14:00,94.5,66.4,29.76,South,180,16.6,-999.0,40,-99.99,,,0.54,Acu-Link.com,2013-06-25 00:14:00,
2013-06-24 19:29:00,93.6,66.3,29.77,SSW,202,13.4,-999.0,41,-99.99,,,0.54,Acu-Link.com,2013-06-25 00:29:00,
2013-06-24 19:44:00,94.1,66.8,29.78,SSW,202,11.0,-999.0,41,-99.99,,,0.54,Acu-Link.com,2013-06-25 00:44:00,
2013-06-24 19:59:00,93.0,65.8,29.78,SSW,202,12.5,-999.0,41,-99.99,,,0.54,Acu-Link.com,2013-06-25 00:59:00,
2013-06-24 20:15:00,93.0,66.5,29.78,South,180,13.4,-999.0,42,-99.99,,,0.54,Acu-Link.com,2013-06-25 01:15:00,
2013-06-24 20:30:00,92.5,66.0,29.78,South,180,7.8,-999.0,42,-99.99,,,0.54,Acu-Link.com,2013-06-25 01:30:00,
2013-06-24 20:45:00,91.6,65.2,29.78,SSW,202,8.3,-999.0,42,-99.99,,,0.54,Acu-Link.com,2013-06-25 01:45:00,
2013-06-24 21:00:00,90.9,65.2,29.78,SSE,157,11.4,-999.0,43,-99.99,,,0.54,Acu-Link.com,2013-06-25 02:00:00,
2013-06-24 21:15:00,90.0,65.7,29.79,South,180,10.3,-999.0,45,-99.99,,,0.54,Acu-Link.com,2013-06-25 02:15:00,
2013-06-24 21:31:00,89.2,65.7,29.80,South,180,7.4,-999.0,46,-99.99,,,0.54,Acu-Link.com,2013-06-25 02:31:00,
2013-06-24 21:46:00,88.9,66.0,29.80,SSW,202,5.1,-999.0,47,-99.99,,,0.54,Acu-Link.com,2013-06-25 02:46:00,
2013-06-24 22:01:00,87.8,66.2,29.81,SSE,157,4.3,-999.0,49,-99.99,,,0.54,Acu-Link.com,2013-06-25 03:01:00,
2013-06-24 22:16:00,86.5,66.2,29.82,SSE,157,5.1,-999.0,51,-99.99,,,0.54,Acu-Link.com,2013-06-25 03:16:00,
2013-06-24 22:31:00,86.2,65.9,29.82,SSE,157,6.7,-999.0,51,-99.99,,,0.54,Acu-Link.com,2013-06-25 03:31:00,
2013-06-24 22:47:00,85.3,66.2,29.83,SSE,157,8.3,-999.0,53,-99.99,,,0.54,Acu-Link.com,2013-06-25 03:47:00,
2013-06-24 23:02:00,84.6,66.1,29.83,SSE,157,8.3,-999.0,54,-99.99,,,0.54,Acu-Link.com,2013-06-25 04:02:00,
2013-06-24 23:17:00,83.7,66.3,29.83,SSE,157,6.7,-999.0,56,-99.99,,,0.54,Acu-Link.com,2013-06-25 04:17:00,
2013-06-24 23:32:00,83.7,66.3,29.83,SE,135,8.3,-999.0,56,-99.99,,,0.54,Acu-Link.com,2013-06-25 04:32:00,
2013-06-24 23:47:00,83.5,66.6,29.84,SE,135,9.4,-999.0,57,-99.99,,,0.54,Acu-Link.com,2013-06-25 04:47:00,